Terminal Aerodrome Forecast
Issued by NWS Austin/San Antonio, TX

Home | Current Version | Previous Version | Text Only | Print | Product List | Glossary On
Versions: 1 2 3 4 5 6 7 8 9 10 11 12 13 14 15 16 17 18 19 20
000
FTUS44 KEWX 252002 AAA
TAFSAT
TAF AMD
KSAT 252002Z 2520/2624 14012KT P6SM SCT250
     FM260500 16012KT P6SM BKN012
     FM260800 18012KT 6SM BR OVC008
     FM261400 28020G30KT P6SM SKC=

USA.gov is the U.S. government's official web portal to all federal, state and local government web resources and services.